createdAt,value
2018-07-21T00:01:07.452Z,24.00
2018-07-21T00:03:35.600Z,23.90
2018-07-21T00:06:03.787Z,23.90
2018-07-21T00:08:31.934Z,23.90
2018-07-21T00:11:00.087Z,23.80
2018-07-21T00:13:28.256Z,23.70
2018-07-21T00:15:56.442Z,23.80
2018-07-21T00:18:24.589Z,23.70
2018-07-21T00:20:52.797Z,23.70
2018-07-21T00:23:21.024Z,23.70
2018-07-21T00:25:49.210Z,23.50
2018-07-21T00:28:17.419Z,23.50
2018-07-21T00:30:45.636Z,23.40
2018-07-21T00:33:13.846Z,23.40
2018-07-21T00:35:42.035Z,23.30
2018-07-21T00:38:10.209Z,23.30
2018-07-21T00:40:38.359Z,23.30
2018-07-21T00:43:06.675Z,23.20
2018-07-21T00:45:34.927Z,23.20
2018-07-21T00:48:03.142Z,23.10
2018-07-21T00:50:31.284Z,23.10
2018-07-21T00:52:59.468Z,23.10
2018-07-21T00:55:27.698Z,23.10
2018-07-21T00:57:55.905Z,22.90
2018-07-21T01:00:24.124Z,22.80
2018-07-21T01:02:52.364Z,22.80
2018-07-21T01:05:20.623Z,22.80
2018-07-21T01:07:48.805Z,22.80
2018-07-21T01:10:16.998Z,22.80
2018-07-21T01:12:45.225Z,22.70
2018-07-21T01:15:13.387Z,22.70
2018-07-21T01:17:41.571Z,22.70
2018-07-21T01:20:09.759Z,22.70
2018-07-21T01:22:38.009Z,22.60
2018-07-21T01:25:06.912Z,22.50
2018-07-21T01:27:35.108Z,22.40
2018-07-21T01:30:03.323Z,22.50
2018-07-21T01:32:31.589Z,22.50
2018-07-21T01:34:59.778Z,22.50
2018-07-21T01:37:27.962Z,22.50
2018-07-21T01:39:56.148Z,22.40
2018-07-21T01:42:24.313Z,22.30
2018-07-21T01:44:52.533Z,22.30
2018-07-21T01:47:20.777Z,22.40
2018-07-21T01:49:48.934Z,22.30
2018-07-21T01:52:17.106Z,22.40
2018-07-21T01:54:45.276Z,22.40
2018-07-21T01:57:13.452Z,22.40
2018-07-21T01:59:41.654Z,22.30
2018-07-21T02:02:09.956Z,22.30
2018-07-21T02:04:38.160Z,22.20
2018-07-21T02:07:06.339Z,22.30
2018-07-21T02:09:34.505Z,22.30
2018-07-21T02:12:02.726Z,22.30
2018-07-21T02:14:30.937Z,22.20
2018-07-21T02:16:59.125Z,22.20
2018-07-21T02:19:28.141Z,22.30
2018-07-21T02:21:56.349Z,22.30
2018-07-21T02:24:24.570Z,22.30
2018-07-21T02:26:52.765Z,22.10
2018-07-21T02:29:21.068Z,22.10
2018-07-21T02:31:49.245Z,22.00
2018-07-21T02:34:17.442Z,22.00
2018-07-21T02:36:45.596Z,22.10
2018-07-21T02:39:13.769Z,22.10
2018-07-21T02:41:42.056Z,22.00
2018-07-21T02:44:10.192Z,22.00
2018-07-21T02:46:38.469Z,22.00
2018-07-21T02:49:06.635Z,22.10
2018-07-21T02:51:34.817Z,22.10
2018-07-21T02:54:03.196Z,21.90
2018-07-21T02:56:31.404Z,21.90
2018-07-21T02:58:59.594Z,21.90
2018-07-21T03:01:27.864Z,21.80
2018-07-21T03:03:56.066Z,21.60
2018-07-21T03:06:24.281Z,21.70
2018-07-21T03:08:52.431Z,21.80
2018-07-21T03:11:20.604Z,21.70
2018-07-21T03:13:48.779Z,21.60
2018-07-21T03:16:16.996Z,21.60
2018-07-21T03:18:45.192Z,21.60
2018-07-21T03:21:13.413Z,21.80
2018-07-21T03:23:41.596Z,21.80
2018-07-21T03:26:09.769Z,21.80
2018-07-21T03:28:37.967Z,21.70
2018-07-21T03:31:06.332Z,21.70
2018-07-21T03:33:34.519Z,21.60
2018-07-21T03:36:02.712Z,21.50
2018-07-21T03:38:30.928Z,21.50
2018-07-21T03:40:59.108Z,21.50
2018-07-21T03:43:27.329Z,21.50
2018-07-21T03:45:55.553Z,21.40
2018-07-21T03:48:23.779Z,21.30
2018-07-21T03:50:51.963Z,21.40
2018-07-21T03:53:20.143Z,21.30
2018-07-21T03:55:48.374Z,21.20
2018-07-21T03:58:16.571Z,21.20
2018-07-21T04:00:44.889Z,21.20
2018-07-21T04:03:13.063Z,21.10
2018-07-21T04:05:41.381Z,21.00
2018-07-21T04:08:09.557Z,21.00
2018-07-21T04:10:37.768Z,21.00
2018-07-21T04:13:06.005Z,21.10
2018-07-21T04:15:34.155Z,21.10
2018-07-21T04:18:02.353Z,21.00
2018-07-21T04:20:30.525Z,21.00
2018-07-21T04:22:58.708Z,21.00
2018-07-21T04:25:26.912Z,21.00
2018-07-21T04:27:55.098Z,21.00
2018-07-21T04:30:23.249Z,21.00
2018-07-21T04:32:51.400Z,21.00
2018-07-21T04:35:19.564Z,21.00
2018-07-21T04:37:47.755Z,20.90
2018-07-21T04:40:16.023Z,21.00
2018-07-21T04:42:44.313Z,21.00
2018-07-21T04:45:12.488Z,21.00
2018-07-21T04:47:40.672Z,21.00
2018-07-21T04:50:08.913Z,21.10
2018-07-21T04:52:37.108Z,21.10
2018-07-21T04:55:05.605Z,21.20
2018-07-21T04:57:33.756Z,21.30
2018-07-21T05:00:01.904Z,21.30
2018-07-21T05:02:30.192Z,21.40
2018-07-21T05:04:58.352Z,21.40
2018-07-21T05:07:26.581Z,21.40
2018-07-21T05:12:22.668Z,21.40
2018-07-21T05:14:50.860Z,21.40
2018-07-21T05:17:19.065Z,21.50
2018-07-21T05:19:47.237Z,21.50
2018-07-21T05:22:15.403Z,21.60
2018-07-21T05:24:43.849Z,21.60
2018-07-21T05:27:12.102Z,21.60
2018-07-21T05:29:40.254Z,21.60
2018-07-21T05:32:08.413Z,21.70
2018-07-21T05:34:36.580Z,21.70
2018-07-21T05:37:04.772Z,21.70
2018-07-21T05:39:32.947Z,21.90
2018-07-21T05:42:01.100Z,21.90
2018-07-21T05:44:29.370Z,21.80
2018-07-21T05:46:57.511Z,21.90
2018-07-21T05:49:25.677Z,21.90
2018-07-21T05:51:53.840Z,22.00
2018-07-21T05:54:22.185Z,22.10
2018-07-21T05:56:50.373Z,22.10
2018-07-21T05:59:18.635Z,22.20
2018-07-21T06:01:46.800Z,22.20
2018-07-21T06:04:15.026Z,22.30
2018-07-21T06:06:43.208Z,22.40
2018-07-21T06:09:11.860Z,22.40
2018-07-21T06:11:40.536Z,22.40
2018-07-21T06:14:08.701Z,22.40
2018-07-21T06:16:36.910Z,22.50
2018-07-21T06:19:05.118Z,22.50
2018-07-21T06:21:33.342Z,22.60
2018-07-21T06:26:29.556Z,22.70
2018-07-21T06:28:57.748Z,22.80
2018-07-21T06:31:25.919Z,22.90
2018-07-21T06:33:54.080Z,22.90
2018-07-21T06:36:22.711Z,22.90
2018-07-21T06:38:50.872Z,22.90
2018-07-21T06:41:19.057Z,23.00
2018-07-21T06:43:47.259Z,22.90
2018-07-21T06:46:15.548Z,22.90
2018-07-21T06:48:43.718Z,22.90
2018-07-21T06:51:11.927Z,22.90
2018-07-21T06:53:40.096Z,22.90
2018-07-21T06:56:08.296Z,22.90
2018-07-21T06:58:36.612Z,23.00
2018-07-21T07:01:05.192Z,23.00
2018-07-21T07:03:33.419Z,23.00
2018-07-21T07:08:29.842Z,23.00
2018-07-21T07:10:58.056Z,23.00
2018-07-21T07:13:26.361Z,23.00
2018-07-21T07:15:54.566Z,22.90
2018-07-21T07:18:22.933Z,22.90
2018-07-21T07:20:51.124Z,23.00
2018-07-21T07:23:20.096Z,23.10
2018-07-21T07:25:48.337Z,23.10
2018-07-21T07:28:16.493Z,23.10
2018-07-21T07:30:44.896Z,23.20
2018-07-21T07:33:13.264Z,23.20
2018-07-21T07:35:41.450Z,23.30
2018-07-21T07:38:09.614Z,23.40
2018-07-21T07:40:37.912Z,23.50
2018-07-21T07:43:06.613Z,23.50
2018-07-21T07:45:34.822Z,23.60
2018-07-21T07:48:03.104Z,23.60
2018-07-21T07:50:31.483Z,23.70
2018-07-21T07:52:59.886Z,23.50
2018-07-21T07:55:31.649Z,23.70
2018-07-21T07:58:00.788Z,23.70
2018-07-21T08:00:29.454Z,23.80
2018-07-21T08:02:57.961Z,23.90
2018-07-21T08:05:27.239Z,24.00
2018-07-21T08:07:55.454Z,24.00
2018-07-21T08:10:24.337Z,24.10
2018-07-21T08:12:53.091Z,24.10
2018-07-21T08:15:22.044Z,24.20
2018-07-21T08:17:51.204Z,24.20
2018-07-21T08:20:19.509Z,24.30
2018-07-21T08:22:47.821Z,24.40
2018-07-21T08:25:15.965Z,24.60
2018-07-21T08:27:44.240Z,24.70
2018-07-21T08:30:12.724Z,24.80
2018-07-21T08:32:41.633Z,24.90
2018-07-21T08:35:09.863Z,25.00
2018-07-21T08:37:38.561Z,25.10
2018-07-21T08:40:08.049Z,25.20
2018-07-21T08:42:36.269Z,25.20
2018-07-21T08:45:04.692Z,25.20
2018-07-21T08:47:32.947Z,25.20
2018-07-21T08:50:01.118Z,25.20
2018-07-21T08:52:29.428Z,25.20
2018-07-21T08:54:57.599Z,25.20
2018-07-21T08:57:25.818Z,25.20
2018-07-21T08:59:54.011Z,25.20
2018-07-21T09:02:22.181Z,25.30
2018-07-21T09:04:50.385Z,25.30
2018-07-21T09:07:18.569Z,25.30
2018-07-21T09:09:46.748Z,25.30
2018-07-21T09:12:14.944Z,25.20
2018-07-21T09:14:43.095Z,25.20
2018-07-21T09:17:11.419Z,25.20
2018-07-21T09:19:39.686Z,25.20
2018-07-21T09:22:07.861Z,25.20
2018-07-21T09:24:36.025Z,25.00
2018-07-21T09:27:04.235Z,24.60
2018-07-21T09:29:32.409Z,24.60
2018-07-21T09:32:00.633Z,24.60
2018-07-21T09:34:28.809Z,24.70
2018-07-21T09:36:56.973Z,24.40
2018-07-21T09:39:25.147Z,23.70
2018-07-21T09:41:53.329Z,23.70
2018-07-21T09:44:21.500Z,23.60
2018-07-21T09:46:49.693Z,23.80
2018-07-21T09:49:17.918Z,23.30
2018-07-21T09:51:46.049Z,23.30
2018-07-21T09:54:14.264Z,23.20
2018-07-21T09:56:42.472Z,22.90
2018-07-21T09:59:10.678Z,22.70
2018-07-21T10:01:38.875Z,22.50
2018-07-21T10:04:07.043Z,22.40
2018-07-21T10:06:35.260Z,22.60
2018-07-21T10:09:03.564Z,22.70
2018-07-21T10:11:31.716Z,22.70
2018-07-21T10:13:59.894Z,22.80
2018-07-21T10:16:28.089Z,22.40
2018-07-21T10:18:56.273Z,22.30
2018-07-21T10:21:24.624Z,22.40
2018-07-21T10:23:52.829Z,22.40
2018-07-21T10:26:26.426Z,22.30
2018-07-21T10:29:10.677Z,22.40
2018-07-21T10:31:39.468Z,22.40
2018-07-21T10:34:08.105Z,22.50
2018-07-21T10:36:36.576Z,22.50
2018-07-21T10:39:07.318Z,22.20
2018-07-21T10:41:35.520Z,22.10
2018-07-21T10:44:03.680Z,22.10
2018-07-21T10:46:31.951Z,22.10
2018-07-21T10:49:00.727Z,22.20
2018-07-21T10:51:28.900Z,22.40
2018-07-21T10:53:57.060Z,22.20
2018-07-21T10:56:25.269Z,22.10
2018-07-21T10:58:53.507Z,22.10
2018-07-21T11:01:21.669Z,22.20
2018-07-21T11:03:49.850Z,22.40
2018-07-21T11:06:18.002Z,22.40
2018-07-21T11:08:46.188Z,22.40
2018-07-21T11:11:14.396Z,22.40
2018-07-21T11:13:42.660Z,22.30
2018-07-21T11:16:10.897Z,22.20
2018-07-21T11:18:39.057Z,22.50
2018-07-21T11:21:07.444Z,22.50
2018-07-21T11:23:35.613Z,22.60
2018-07-21T11:26:03.771Z,22.70
2018-07-21T11:28:32.401Z,22.70
2018-07-21T11:31:00.577Z,22.90
2018-07-21T11:33:28.756Z,23.00
2018-07-21T11:35:57.266Z,23.00
2018-07-21T11:38:25.121Z,22.90
2018-07-21T11:40:53.293Z,22.50
2018-07-21T11:43:21.468Z,22.50
2018-07-21T11:45:49.662Z,22.40
2018-07-21T11:48:17.842Z,22.30
2018-07-21T11:50:46.060Z,22.40
2018-07-21T11:53:14.293Z,22.10
2018-07-21T11:55:42.533Z,22.10
2018-07-21T11:58:10.644Z,22.20
2018-07-21T12:00:38.792Z,22.20
2018-07-21T12:03:06.992Z,22.30
2018-07-21T12:05:35.177Z,22.40
2018-07-21T12:08:03.385Z,22.50
2018-07-21T12:10:32.796Z,22.60
2018-07-21T12:13:01.017Z,22.70
2018-07-21T12:15:29.215Z,22.50
2018-07-21T12:17:57.388Z,22.50
2018-07-21T12:20:25.640Z,22.60
2018-07-21T12:25:21.740Z,22.70
2018-07-21T12:27:49.924Z,22.70
2018-07-21T12:30:18.144Z,22.40
2018-07-21T12:32:46.388Z,22.30
2018-07-21T12:35:14.557Z,22.30
2018-07-21T12:37:42.768Z,22.10
2018-07-21T12:40:11.066Z,22.00
2018-07-21T12:42:39.166Z,21.90
2018-07-21T12:45:07.402Z,21.90
2018-07-21T12:47:35.576Z,21.90
2018-07-21T12:50:03.861Z,21.70
2018-07-21T12:52:32.152Z,21.80
2018-07-21T12:55:00.300Z,21.80
2018-07-21T12:57:28.465Z,21.70
2018-07-21T12:59:56.616Z,21.80
2018-07-21T13:02:24.793Z,21.80
2018-07-21T13:04:52.973Z,21.80
2018-07-21T13:07:21.293Z,21.70
2018-07-21T13:09:49.585Z,21.80
2018-07-21T13:12:17.681Z,21.90
2018-07-21T13:14:45.823Z,22.00
2018-07-21T13:17:13.973Z,21.90
2018-07-21T13:19:42.139Z,21.80
2018-07-21T13:22:10.282Z,21.80
2018-07-21T13:24:38.463Z,21.90
2018-07-21T13:27:06.622Z,21.90
2018-07-21T13:29:34.776Z,21.90
2018-07-21T13:32:02.996Z,22.00
2018-07-21T13:34:31.139Z,22.00
2018-07-21T13:36:59.321Z,21.90
2018-07-21T13:39:27.564Z,22.00
2018-07-21T13:41:55.719Z,22.00
2018-07-21T13:44:23.881Z,22.10
2018-07-21T13:46:52.071Z,22.30
2018-07-21T13:49:20.179Z,22.30
2018-07-21T13:51:48.427Z,22.30
2018-07-21T13:54:16.557Z,22.30
2018-07-21T13:56:44.788Z,22.50
2018-07-21T13:59:12.983Z,22.60
2018-07-21T14:01:41.178Z,22.70
2018-07-21T14:04:09.340Z,22.70
2018-07-21T14:06:37.624Z,22.60
2018-07-21T14:09:07.408Z,22.60
2018-07-21T14:11:35.655Z,22.80
2018-07-21T14:14:04.067Z,22.90
2018-07-21T14:16:32.419Z,23.00
2018-07-21T14:19:00.990Z,23.10
2018-07-21T14:21:29.164Z,23.10
2018-07-21T14:23:57.735Z,23.00
2018-07-21T14:26:26.000Z,23.00
2018-07-21T14:28:54.227Z,23.10
2018-07-21T14:31:22.501Z,23.20
2018-07-21T14:33:50.660Z,23.30
2018-07-21T14:36:18.918Z,23.40
2018-07-21T14:38:47.048Z,23.40
2018-07-21T14:41:15.219Z,23.20
2018-07-21T14:43:43.420Z,23.30
2018-07-21T14:46:11.707Z,23.30
2018-07-21T14:48:39.919Z,23.30
2018-07-21T14:51:08.131Z,23.30
2018-07-21T14:53:36.338Z,23.30
2018-07-21T14:56:04.484Z,23.40
2018-07-21T14:58:32.684Z,23.30
2018-07-21T15:01:00.857Z,23.20
2018-07-21T15:03:29.024Z,23.20
2018-07-21T15:05:57.196Z,23.20
2018-07-21T15:08:25.327Z,23.10
2018-07-21T15:10:53.480Z,23.10
2018-07-21T15:13:21.669Z,23.00
2018-07-21T15:15:49.847Z,23.10
2018-07-21T15:18:17.991Z,23.10
2018-07-21T15:20:46.129Z,23.10
2018-07-21T15:23:14.289Z,23.00
2018-07-21T15:25:42.480Z,23.00
2018-07-21T15:28:10.628Z,22.90
2018-07-21T15:30:38.792Z,23.00
2018-07-21T15:33:07.063Z,23.10
2018-07-21T15:35:35.203Z,22.90
2018-07-21T15:38:03.420Z,22.80
2018-07-21T15:40:31.649Z,22.80
2018-07-21T15:42:59.724Z,22.70
2018-07-21T15:45:27.885Z,22.80
2018-07-21T15:47:56.034Z,22.70
2018-07-21T15:50:24.187Z,22.80
2018-07-21T15:52:52.356Z,22.80
2018-07-21T15:55:20.521Z,22.80
2018-07-21T15:57:49.285Z,22.80
2018-07-21T16:00:17.441Z,22.60
2018-07-21T16:02:45.631Z,22.60
2018-07-21T16:05:13.780Z,22.70
2018-07-21T16:07:41.961Z,22.60
2018-07-21T16:10:10.137Z,22.70
2018-07-21T16:12:38.304Z,22.60
2018-07-21T16:15:07.009Z,22.70
2018-07-21T16:17:35.167Z,22.60
2018-07-21T16:20:03.436Z,22.60
2018-07-21T16:22:31.604Z,22.50
2018-07-21T16:24:59.794Z,22.50
2018-07-21T16:27:27.997Z,22.60
2018-07-21T16:29:56.269Z,22.70
2018-07-21T16:32:24.449Z,22.80
2018-07-21T16:34:52.630Z,22.90
2018-07-21T16:37:20.817Z,23.00
2018-07-21T16:39:48.976Z,22.90
2018-07-21T16:42:17.185Z,22.90
2018-07-21T16:44:45.321Z,23.00
2018-07-21T16:47:13.766Z,23.10
2018-07-21T16:49:41.940Z,22.90
2018-07-21T16:52:10.148Z,23.00
2018-07-21T16:54:38.309Z,22.90
2018-07-21T16:57:06.468Z,23.00
2018-07-21T16:59:34.637Z,23.00
2018-07-21T17:02:02.878Z,22.90
2018-07-21T17:04:31.071Z,23.10
2018-07-21T17:06:59.221Z,23.10
2018-07-21T17:09:27.390Z,23.00
2018-07-21T17:11:55.577Z,23.10
2018-07-21T17:14:23.760Z,23.10
2018-07-21T17:16:51.913Z,23.10
2018-07-21T17:21:48.024Z,23.20
2018-07-21T17:24:16.172Z,23.00
2018-07-21T17:26:44.345Z,23.00
2018-07-21T17:29:12.573Z,23.00
2018-07-21T17:31:40.722Z,23.00
2018-07-21T17:34:08.866Z,22.90
2018-07-21T17:36:37.045Z,23.00
2018-07-21T17:39:07.330Z,23.00
2018-07-21T17:41:35.557Z,22.90
2018-07-21T17:44:03.717Z,22.80
2018-07-21T17:46:31.920Z,22.90
2018-07-21T17:49:00.065Z,22.90
2018-07-21T17:51:28.235Z,22.90
2018-07-21T17:53:56.481Z,22.80
2018-07-21T17:56:24.615Z,22.80
2018-07-21T17:58:52.770Z,22.80
2018-07-21T18:01:20.957Z,22.80
2018-07-21T18:03:49.107Z,22.80
2018-07-21T18:06:17.284Z,22.80
2018-07-21T18:08:45.448Z,22.80
2018-07-21T18:11:13.618Z,22.80
2018-07-21T18:13:41.811Z,22.70
2018-07-21T18:16:10.000Z,22.70
2018-07-21T18:18:38.119Z,22.70
2018-07-21T18:21:06.349Z,22.60
2018-07-21T18:23:34.495Z,22.60
2018-07-21T18:26:02.679Z,22.60
2018-07-21T18:28:30.856Z,22.60
2018-07-21T18:30:58.996Z,22.60
2018-07-21T18:33:27.153Z,22.60
2018-07-21T18:35:55.345Z,22.50
2018-07-21T18:38:23.540Z,22.50
2018-07-21T18:40:51.703Z,22.50
2018-07-21T18:43:19.992Z,22.50
2018-07-21T18:45:48.180Z,22.50
2018-07-21T18:48:16.352Z,22.40
2018-07-21T18:50:44.539Z,22.50
2018-07-21T18:53:12.729Z,22.50
2018-07-21T18:55:40.959Z,22.40
2018-07-21T18:58:09.296Z,22.40
2018-07-21T19:00:37.560Z,22.40
2018-07-21T19:03:05.721Z,22.30
2018-07-21T19:05:33.884Z,22.30
2018-07-21T19:08:02.077Z,22.30
2018-07-21T19:10:30.228Z,22.30
2018-07-21T19:12:58.466Z,22.20
2018-07-21T19:15:32.147Z,22.10
2018-07-21T19:18:00.439Z,22.10
2018-07-21T19:20:34.017Z,22.10
2018-07-21T19:23:02.245Z,22.10
2018-07-21T19:25:35.792Z,22.10
2018-07-21T19:30:32.906Z,22.00
2018-07-21T19:33:01.622Z,22.00
2018-07-21T19:35:30.968Z,22.00
2018-07-21T19:37:59.230Z,21.90
2018-07-21T19:40:27.553Z,21.90
2018-07-21T19:42:55.815Z,21.90
2018-07-21T19:45:24.046Z,21.90
2018-07-21T19:47:52.442Z,21.90
2018-07-21T19:50:20.773Z,21.80
2018-07-21T19:52:49.049Z,21.90
2018-07-21T19:55:17.332Z,21.80
2018-07-21T19:57:45.660Z,21.80
2018-07-21T20:00:13.890Z,21.80
2018-07-21T20:02:42.156Z,21.70
2018-07-21T20:05:10.464Z,21.70
2018-07-21T20:07:38.645Z,21.70
2018-07-21T20:10:06.857Z,21.70
2018-07-21T20:12:35.268Z,21.70
2018-07-21T20:15:03.506Z,21.70
2018-07-21T20:17:31.786Z,21.80
2018-07-21T20:19:59.928Z,21.80
2018-07-21T20:22:28.272Z,21.70
2018-07-21T20:24:56.539Z,21.70
2018-07-21T20:27:24.715Z,21.70
2018-07-21T20:29:53.024Z,21.60
2018-07-21T20:32:21.244Z,21.50
2018-07-21T20:34:49.463Z,21.40
2018-07-21T20:37:17.684Z,21.40
2018-07-21T20:39:46.012Z,21.40
2018-07-21T20:42:14.266Z,21.50
2018-07-21T20:44:42.444Z,21.50
2018-07-21T20:47:10.684Z,21.40
2018-07-21T20:49:38.955Z,21.50
2018-07-21T20:52:07.281Z,21.50
2018-07-21T20:54:35.550Z,21.40
2018-07-21T20:57:03.746Z,21.30
2018-07-21T21:01:59.860Z,21.20
2018-07-21T21:04:28.100Z,21.20
2018-07-21T21:06:56.486Z,21.20
2018-07-21T21:09:24.675Z,21.30
2018-07-21T21:11:52.864Z,21.20
2018-07-21T21:14:21.045Z,21.30
2018-07-21T21:16:49.225Z,21.30
2018-07-21T21:19:17.434Z,21.30
2018-07-21T21:21:45.673Z,21.30
2018-07-21T21:24:13.917Z,21.30
2018-07-21T21:26:42.077Z,21.30
2018-07-21T21:29:10.288Z,21.20
2018-07-21T21:31:38.464Z,21.20
2018-07-21T21:34:06.859Z,21.20
2018-07-21T21:36:35.033Z,21.10
2018-07-21T21:39:03.296Z,21.10
2018-07-21T21:41:31.556Z,21.10
2018-07-21T21:43:59.747Z,21.20
2018-07-21T21:46:27.949Z,21.20
2018-07-21T21:48:56.272Z,21.20
2018-07-21T21:51:24.513Z,21.10
2018-07-21T21:53:52.687Z,21.10
2018-07-21T21:56:20.942Z,21.10
2018-07-21T21:58:49.220Z,21.00
2018-07-21T22:01:17.536Z,21.10
2018-07-21T22:03:45.922Z,21.00
2018-07-21T22:06:14.278Z,21.10
2018-07-21T22:08:42.549Z,21.00
2018-07-21T22:11:10.767Z,21.00
2018-07-21T22:13:38.961Z,20.90
2018-07-21T22:18:35.161Z,20.80
2018-07-21T22:21:03.440Z,20.80
2018-07-21T22:23:33.044Z,20.80
2018-07-21T22:26:01.276Z,20.50
2018-07-21T22:28:29.686Z,20.60
2018-07-21T22:30:58.293Z,20.60
2018-07-21T22:33:26.551Z,20.60
2018-07-21T22:35:54.804Z,20.70
2018-07-21T22:38:23.034Z,20.70
2018-07-21T22:40:51.328Z,20.60
2018-07-21T22:43:19.559Z,20.30
2018-07-21T22:45:47.742Z,20.20
2018-07-21T22:48:16.004Z,20.30
2018-07-21T22:50:44.493Z,20.30
2018-07-21T22:53:12.696Z,20.20
2018-07-21T22:55:40.903Z,20.10
2018-07-21T23:00:42.743Z,20.00
2018-07-21T23:03:10.924Z,20.00
2018-07-21T23:05:39.103Z,20.00
2018-07-21T23:08:07.299Z,20.00
2018-07-21T23:10:35.551Z,20.00
2018-07-21T23:13:03.788Z,19.90
2018-07-21T23:15:32.000Z,19.90
2018-07-21T23:18:00.397Z,19.90
2018-07-21T23:20:28.590Z,19.90
2018-07-21T23:22:56.817Z,19.70
2018-07-21T23:25:25.018Z,19.80
2018-07-21T23:27:53.191Z,19.70
2018-07-21T23:30:21.388Z,19.70
2018-07-21T23:32:49.588Z,19.70
2018-07-21T23:35:17.830Z,19.70
2018-07-21T23:37:46.015Z,19.80
2018-07-21T23:40:14.329Z,19.70
2018-07-21T23:42:42.619Z,19.70
2018-07-21T23:45:10.820Z,19.70
2018-07-21T23:47:39.324Z,19.70
2018-07-21T23:50:07.712Z,19.70
2018-07-21T23:52:35.899Z,19.80
2018-07-21T23:55:05.363Z,19.80
2018-07-21T23:57:33.569Z,19.70
